Time;durP1;ratioP1;P1;durP2;ratioP2;P2;SDS_P1;SDS_P2;PMS_P1;PMS_P2;Temp;Humidity;BMP_temperature;BMP_pressure;BME280_temperature;BME280_humidity;BME280_pressure;Samples;Min_cycle;Max_cycle;Signal;HPM_P1;HPM_P2
2022/05/08 00:01:21;;;;;;;;;;;16.80;62.60;;;;;;5057739;28;19924;-77
2022/05/08 00:03:48;;;;;;;;;;;16.80;62.70;;;;;;5053568;28;19932;-77
2022/05/08 00:06:15;;;;;;;;;;;16.80;62.90;;;;;;5050299;28;20417;-78
2022/05/08 00:08:41;;;;;;;;;;;16.70;62.90;;;;;;5049360;28;19932;-75
2022/05/08 00:11:08;;;;;;;;;;;16.70;63.10;;;;;;5051798;28;19966;-77
2022/05/08 00:13:36;;;;;;;;;;;16.70;63.30;;;;;;5050991;28;19932;-76
2022/05/08 00:16:03;;;;;;;;;;;16.60;63.30;;;;;;5053417;28;20048;-77
2022/05/08 00:18:29;;;;;;;;;;;16.60;63.40;;;;;;5056362;28;19932;-78
2022/05/08 00:20:56;;;;;;;;;;;16.60;63.60;;;;;;5055953;28;19929;-77
2022/05/08 00:23:22;;;;;;;;;;;16.50;63.60;;;;;;5056085;28;20668;-76
2022/05/08 00:25:49;;;;;;;;;;;16.50;63.80;;;;;;5055171;28;19928;-77
2022/05/08 00:28:15;;;;;;;;;;;16.40;63.80;;;;;;5054625;28;19925;-76
2022/05/08 00:30:43;;;;;;;;;;;16.40;63.90;;;;;;5053878;28;19935;-77
2022/05/08 00:33:10;;;;;;;;;;;16.40;64.00;;;;;;5052053;28;19928;-77
2022/05/08 00:35:37;;;;;;;;;;;16.30;64.00;;;;;;5048140;28;19929;-77
2022/05/08 00:38:03;;;;;;;;;;;16.30;64.20;;;;;;5053462;28;19928;-77
2022/05/08 00:40:32;;;;;;;;;;;16.20;64.20;;;;;;5053934;28;19928;-77
2022/05/08 00:43:14;;;;;;;;;;;16.20;64.40;;;;;;5054998;28;19932;-76
2022/05/08 00:45:40;;;;;;;;;;;16.20;64.50;;;;;;5052678;28;19929;-78
2022/05/08 00:48:08;;;;;;;;;;;16.20;64.60;;;;;;5053545;28;19932;-76
2022/05/08 00:50:35;;;;;;;;;;;16.10;64.70;;;;;;5050202;28;19932;-77
2022/05/08 00:53:02;;;;;;;;;;;16.10;65.30;;;;;;5057306;28;19928;-76
2022/05/08 00:55:28;;;;;;;;;;;16.10;65.00;;;;;;5057303;28;19929;-76
2022/05/08 00:57:55;;;;;;;;;;;16.00;65.00;;;;;;5052273;28;19939;-77
2022/05/08 01:00:22;;;;;;;;;;;16.00;65.20;;;;;;5061616;28;19929;-76
2022/05/08 01:02:48;;;;;;;;;;;15.90;65.20;;;;;;5059513;28;19928;-77
2022/05/08 01:05:16;;;;;;;;;;;15.90;65.20;;;;;;5057652;28;19936;-77
2022/05/08 01:07:43;;;;;;;;;;;15.90;65.40;;;;;;5057957;28;19929;-78
2022/05/08 01:10:10;;;;;;;;;;;15.80;65.50;;;;;;5051977;28;19928;-77
2022/05/08 01:12:44;;;;;;;;;;;15.80;65.60;;;;;;5056468;28;19937;-76
2022/05/08 01:15:11;;;;;;;;;;;15.70;65.80;;;;;;5057737;28;20011;-78
2022/05/08 01:17:37;;;;;;;;;;;15.70;65.90;;;;;;5052288;28;20551;-77
2022/05/08 01:20:05;;;;;;;;;;;15.70;65.90;;;;;;5053244;28;19932;-77
2022/05/08 01:22:33;;;;;;;;;;;15.70;66.00;;;;;;5052088;28;19948;-77
2022/05/08 01:25:00;;;;;;;;;;;15.60;66.00;;;;;;5053748;28;19936;-75
2022/05/08 01:27:27;;;;;;;;;;;15.60;66.20;;;;;;5052402;28;19936;-77
2022/05/08 01:29:54;;;;;;;;;;;15.60;66.30;;;;;;5055582;28;19929;-78
2022/05/08 01:32:20;;;;;;;;;;;15.60;66.40;;;;;;5052414;28;19933;-76
2022/05/08 01:34:47;;;;;;;;;;;15.50;66.40;;;;;;5053860;28;19935;-77
2022/05/08 01:37:13;;;;;;;;;;;15.50;66.60;;;;;;5054922;28;20414;-77
2022/05/08 01:39:41;;;;;;;;;;;15.40;66.70;;;;;;5053158;28;20066;-77
2022/05/08 01:42:08;;;;;;;;;;;15.40;66.80;;;;;;5055470;28;19978;-76
2022/05/08 01:44:35;;;;;;;;;;;15.40;66.90;;;;;;5051138;28;19936;-76
2022/05/08 01:49:42;;;;;;;;;;;15.30;67.10;;;;;;5049881;28;19929;-76
2022/05/08 01:52:09;;;;;;;;;;;15.30;67.20;;;;;;5054455;28;21537;-76
2022/05/08 01:54:36;;;;;;;;;;;15.20;67.30;;;;;;5052528;28;20344;-78
2022/05/08 01:57:04;;;;;;;;;;;15.20;67.40;;;;;;4995930;28;1732009;-76
2022/05/08 01:59:30;;;;;;;;;;;15.20;67.40;;;;;;5055869;28;19934;-76
2022/05/08 02:01:57;;;;;;;;;;;15.10;67.60;;;;;;5053162;28;19929;-77
2022/05/08 02:04:24;;;;;;;;;;;15.10;67.60;;;;;;5053726;28;20264;-76
2022/05/08 02:06:51;;;;;;;;;;;15.10;68.30;;;;;;5057726;28;19939;-76
2022/05/08 02:09:18;;;;;;;;;;;15.10;67.80;;;;;;5055189;28;20386;-77
2022/05/08 02:11:45;;;;;;;;;;;15.00;67.90;;;;;;5055155;28;19964;-76
2022/05/08 02:14:13;;;;;;;;;;;15.00;68.00;;;;;;5055178;28;19940;-78
2022/05/08 02:16:39;;;;;;;;;;;14.90;68.00;;;;;;5054562;28;19936;-77
2022/05/08 02:19:06;;;;;;;;;;;14.90;68.10;;;;;;5057044;28;19928;-76
2022/05/08 02:21:32;;;;;;;;;;;14.90;68.10;;;;;;5055070;28;20721;-76
2022/05/08 02:23:59;;;;;;;;;;;14.90;68.20;;;;;;5052283;28;19940;-78
2022/05/08 02:26:26;;;;;;;;;;;14.80;68.30;;;;;;5054102;28;19925;-75
2022/05/08 02:28:52;;;;;;;;;;;14.80;68.50;;;;;;5056070;28;19939;-76
2022/05/08 02:31:20;;;;;;;;;;;14.80;68.60;;;;;;5056478;28;19928;-77
2022/05/08 02:33:47;;;;;;;;;;;14.80;68.70;;;;;;5053999;28;19944;-76
2022/05/08 02:36:13;;;;;;;;;;;14.70;68.60;;;;;;5060323;28;19971;-77
2022/05/08 02:38:40;;;;;;;;;;;14.60;82.20;;;;;;5050236;28;20024;-76
2022/05/08 02:41:06;;;;;;;;;;;14.60;68.00;;;;;;5056498;28;19929;-76
2022/05/08 02:43:33;;;;;;;;;;;14.60;68.00;;;;;;5055606;28;19941;-76
2022/05/08 02:46:02;;;;;;;;;;;14.60;68.80;;;;;;5059720;28;19932;-74
2022/05/08 02:48:30;;;;;;;;;;;14.50;68.80;;;;;;5053785;28;19936;-76
2022/05/08 02:50:56;;;;;;;;;;;14.50;68.30;;;;;;5055144;28;19935;-76
2022/05/08 02:53:23;;;;;;;;;;;14.50;69.00;;;;;;5052759;28;19939;-77
2022/05/08 02:58:36;;;;;;;;;;;14.60;69.50;;;;;;5013356;28;20653;-76
2022/05/08 03:01:04;;;;;;;;;;;14.40;68.80;;;;;;5052571;28;20047;-76
2022/05/08 03:03:31;;;;;;;;;;;14.30;69.60;;;;;;5054884;28;19929;-76
2022/05/08 03:05:58;;;;;;;;;;;14.30;69.30;;;;;;5052623;28;19928;-76
2022/05/08 03:08:25;;;;;;;;;;;14.30;71.50;;;;;;5054798;28;19936;-76
2022/05/08 03:13:36;;;;;;;;;;;14.20;69.10;;;;;;5051491;28;19932;-76
2022/05/08 03:16:03;;;;;;;;;;;14.20;69.70;;;;;;5052565;28;19933;-76
2022/05/08 03:18:29;;;;;;;;;;;14.20;69.70;;;;;;5048803;28;19929;-78
2022/05/08 03:20:58;;;;;;;;;;;14.10;69.10;;;;;;5055240;28;19933;-77
2022/05/08 03:23:24;;;;;;;;;;;14.10;69.80;;;;;;5056305;28;19925;-76
2022/05/08 03:25:51;;;;;;;;;;;14.10;69.90;;;;;;5058975;28;19932;-77
2022/05/08 03:28:17;;;;;;;;;;;14.00;69.50;;;;;;5055050;28;19924;-76
2022/05/08 03:30:44;;;;;;;;;;;14.00;69.40;;;;;;5050652;28;19940;-76
2022/05/08 03:33:11;;;;;;;;;;;13.90;70.00;;;;;;5054040;28;20411;-76
2022/05/08 03:35:38;;;;;;;;;;;13.90;70.20;;;;;;5051800;28;19936;-77
2022/05/08 03:38:06;;;;;;;;;;;13.90;70.30;;;;;;5053900;28;19936;-77
2022/05/08 03:40:33;;;;;;;;;;;13.90;69.70;;;;;;5055433;28;20770;-75
2022/05/08 03:43:00;;;;;;;;;;;13.90;70.30;;;;;;5051839;28;19936;-74
2022/05/08 03:45:27;;;;;;;;;;;13.80;70.20;;;;;;5050814;28;20315;-76
2022/05/08 03:47:54;;;;;;;;;;;13.80;70.30;;;;;;5053325;28;19928;-77
2022/05/08 03:50:20;;;;;;;;;;;13.80;69.70;;;;;;5055372;28;19939;-76
2022/05/08 03:52:47;;;;;;;;;;;13.80;70.40;;;;;;5054079;28;20423;-77
2022/05/08 03:55:16;;;;;;;;;;;13.70;70.50;;;;;;5054967;28;19933;-76
2022/05/08 03:57:42;;;;;;;;;;;13.70;70.60;;;;;;5053879;28;19964;-76
2022/05/08 04:00:10;;;;;;;;;;;13.70;70.60;;;;;;5052998;28;19928;-76
2022/05/08 04:02:36;;;;;;;;;;;13.70;70.90;;;;;;5053978;28;19935;-77
2022/05/08 04:05:03;;;;;;;;;;;13.80;70.90;;;;;;5053642;28;19929;-76
2022/05/08 04:07:30;;;;;;;;;;;13.60;71.10;;;;;;5049789;28;20055;-76
2022/05/08 04:09:56;;;;;;;;;;;13.60;70.50;;;;;;5056563;28;20307;-76
2022/05/08 04:12:24;;;;;;;;;;;13.60;71.00;;;;;;5056105;28;19924;-78
2022/05/08 04:14:51;;;;;;;;;;;13.50;71.00;;;;;;5052561;28;19932;-76
2022/05/08 04:17:17;;;;;;;;;;;13.50;71.20;;;;;;5053855;28;20423;-77
2022/05/08 04:19:43;;;;;;;;;;;13.50;70.70;;;;;;5054002;28;19924;-78
2022/05/08 04:24:54;;;;;;;;;;;13.40;71.40;;;;;;5051534;28;19955;-77
2022/05/08 04:27:20;;;;;;;;;;;13.40;71.50;;;;;;5052883;28;19928;-75
2022/05/08 04:29:48;;;;;;;;;;;13.40;71.00;;;;;;5049698;28;20740;-77
2022/05/08 04:32:15;;;;;;;;;;;13.40;71.60;;;;;;5051678;28;19928;-77
2022/05/08 04:34:41;;;;;;;;;;;13.50;71.70;;;;;;5051677;28;19928;-77
2022/05/08 04:37:09;;;;;;;;;;;13.30;71.60;;;;;;5056525;28;19935;-75
2022/05/08 04:39:36;;;;;;;;;;;13.30;71.10;;;;;;5049579;28;19963;-76
2022/05/08 04:42:02;;;;;;;;;;;13.20;71.60;;;;;;5053699;28;19929;-76
2022/05/08 04:44:29;;;;;;;;;;;13.30;71.70;;;;;;5051522;28;19928;-76
2022/05/08 04:46:57;;;;;;;;;;;13.20;71.80;;;;;;5058935;28;19936;-77
2022/05/08 04:49:24;;;;;;;;;;;13.20;71.20;;;;;;5050890;28;20380;-77
2022/05/08 04:51:50;;;;;;;;;;;13.20;71.90;;;;;;5050168;28;20392;-77
2022/05/08 04:54:17;;;;;;;;;;;13.10;71.80;;;;;;5053475;28;19932;-75
2022/05/08 04:56:43;;;;;;;;;;;13.10;71.90;;;;;;5050939;28;19936;-76
2022/05/08 04:59:10;;;;;;;;;;;13.10;71.40;;;;;;5053690;28;19932;-76
2022/05/08 05:01:36;;;;;;;;;;;13.10;72.00;;;;;;5053707;28;19928;-76
2022/05/08 05:04:04;;;;;;;;;;;13.10;72.10;;;;;;5052712;28;19936;-75
2022/05/08 05:06:31;;;;;;;;;;;13.00;72.10;;;;;;5049480;28;19933;-76
2022/05/08 05:08:58;;;;;;;;;;;13.00;71.70;;;;;;5047620;28;19940;-76
2022/05/08 05:11:24;;;;;;;;;;;13.00;72.30;;;;;;5053656;28;19936;-78
2022/05/08 05:13:51;;;;;;;;;;;13.00;73.10;;;;;;5056649;28;19940;-76
2022/05/08 05:16:17;;;;;;;;;;;13.00;72.40;;;;;;5054805;28;19937;-75
2022/05/08 05:18:44;;;;;;;;;;;13.00;71.90;;;;;;5049797;28;19944;-75
2022/05/08 05:21:12;;;;;;;;;;;12.90;72.50;;;;;;5048859;28;19936;-76
2022/05/08 05:23:38;;;;;;;;;;;12.90;72.60;;;;;;5051748;28;19939;-76
2022/05/08 05:26:05;;;;;;;;;;;12.90;72.70;;;;;;5056001;28;19944;-77
2022/05/08 05:28:32;;;;;;;;;;;12.90;72.80;;;;;;5049024;28;19929;-77
2022/05/08 05:30:58;;;;;;;;;;;12.90;72.20;;;;;;5051945;28;19932;-76
2022/05/08 05:33:25;;;;;;;;;;;12.90;72.50;;;;;;5053902;28;19928;-76
2022/05/08 05:35:51;;;;;;;;;;;12.90;72.60;;;;;;5054004;28;19932;-77
2022/05/08 05:38:19;;;;;;;;;;;12.90;73.20;;;;;;5057604;28;19934;-76
2022/05/08 05:40:46;;;;;;;;;;;12.90;72.70;;;;;;5054426;28;19935;-75
2022/05/08 05:43:12;;;;;;;;;;;12.90;73.30;;;;;;5054307;28;19935;-76
2022/05/08 05:45:39;;;;;;;;;;;12.90;73.40;;;;;;5051629;28;19936;-76
2022/05/08 05:48:05;;;;;;;;;;;12.90;72.80;;;;;;5055411;28;20292;-75
2022/05/08 05:50:32;;;;;;;;;;;12.90;82.90;;;;;;5059733;28;19931;-76
2022/05/08 05:52:59;;;;;;;;;;;12.90;72.80;;;;;;5057481;28;20027;-75
2022/05/08 05:55:27;;;;;;;;;;;12.80;73.50;;;;;;5053487;28;19935;-75
2022/05/08 05:57:53;;;;;;;;;;;12.90;73.50;;;;;;5054495;28;19936;-77
2022/05/08 06:00:21;;;;;;;;;;;12.90;73.00;;;;;;5053819;28;20014;-76
2022/05/08 06:02:48;;;;;;;;;;;12.90;90.40;;;;;;5054073;28;20556;-76
2022/05/08 06:05:15;;;;;;;;;;;13.00;74.00;;;;;;5055959;28;20269;-76
2022/05/08 06:07:42;;;;;;;;;;;12.90;73.70;;;;;;5054222;28;19935;-76
2022/05/08 06:10:10;;;;;;;;;;;12.90;73.20;;;;;;5058026;28;20024;-76
2022/05/08 06:12:37;;;;;;;;;;;12.90;73.90;;;;;;5051937;28;19931;-76
2022/05/08 06:15:06;;;;;;;;;;;12.90;74.60;;;;;;5053009;28;19932;-75
2022/05/08 06:17:32;;;;;;;;;;;12.90;73.90;;;;;;5050611;28;19932;-74
2022/05/08 06:19:59;;;;;;;;;;;12.90;73.30;;;;;;5053500;28;20454;-76
2022/05/08 06:22:25;;;;;;;;;;;12.90;73.90;;;;;;5054680;28;19956;-76
2022/05/08 06:24:52;;;;;;;;;;;12.90;73.90;;;;;;5052769;28;20306;-76
2022/05/08 06:27:18;;;;;;;;;;;12.30;73.50;;;;;;5054745;28;19932;-76
2022/05/08 06:29:46;;;;;;;;;;;12.90;73.30;;;;;;5051598;28;20379;-76
2022/05/08 06:32:13;;;;;;;;;;;12.90;73.90;;;;;;5056107;28;20530;-76
2022/05/08 06:34:41;;;;;;;;;;;13.10;74.00;;;;;;5050293;28;19928;-77
2022/05/08 06:37:08;;;;;;;;;;;12.90;73.90;;;;;;5056380;28;20007;-76
2022/05/08 06:39:34;;;;;;;;;;;13.00;73.50;;;;;;5057375;28;19938;-77
2022/05/08 06:42:01;;;;;;;;;;;13.00;74.00;;;;;;5051384;28;19936;-77
2022/05/08 06:44:27;;;;;;;;;;;13.00;74.00;;;;;;5055617;28;19932;-76
2022/05/08 06:46:56;;;;;;;;;;;13.00;74.10;;;;;;5048353;28;19933;-76
2022/05/08 06:49:22;;;;;;;;;;;13.00;73.90;;;;;;5054252;28;19928;-76
2022/05/08 06:51:49;;;;;;;;;;;13.00;73.90;;;;;;5055187;28;19933;-76
2022/05/08 06:54:15;;;;;;;;;;;13.10;74.60;;;;;;5054605;28;19974;-76
2022/05/08 06:56:42;;;;;;;;;;;13.10;74.10;;;;;;5054075;28;20577;-77
2022/05/08 07:01:53;;;;;;;;;;;13.10;74.70;;;;;;5053800;28;19931;-76
2022/05/08 07:04:21;;;;;;;;;;;13.10;74.10;;;;;;5052519;28;19933;-77
2022/05/08 07:06:48;;;;;;;;;;;13.10;74.80;;;;;;5052392;28;19933;-76
2022/05/08 07:09:15;;;;;;;;;;;13.20;74.20;;;;;;5053938;28;19983;-76
2022/05/08 07:11:44;;;;;;;;;;;13.20;74.80;;;;;;5054706;28;19929;-75
2022/05/08 07:14:11;;;;;;;;;;;13.20;74.30;;;;;;5053685;28;20043;-77
2022/05/08 07:16:38;;;;;;;;;;;13.20;74.90;;;;;;5053678;28;20448;-76
2022/05/08 07:19:04;;;;;;;;;;;13.30;74.30;;;;;;5053590;28;19932;-75
2022/05/08 07:21:32;;;;;;;;;;;13.30;74.90;;;;;;5053267;28;19928;-76
2022/05/08 07:23:59;;;;;;;;;;;13.30;74.80;;;;;;5053506;28;19933;-75
2022/05/08 07:26:25;;;;;;;;;;;13.30;75.00;;;;;;5053186;28;19929;-75
2022/05/08 07:28:52;;;;;;;;;;;13.60;76.20;;;;;;5052001;28;20555;-77
2022/05/08 07:31:18;;;;;;;;;;;13.50;76.80;;;;;;5051693;28;19932;-78
2022/05/08 07:33:45;;;;;;;;;;;13.60;76.40;;;;;;5050580;28;20019;-78
2022/05/08 07:36:13;;;;;;;;;;;13.60;76.20;;;;;;5057111;28;19932;-76
2022/05/08 07:38:42;;;;;;;;;;;13.60;76.20;;;;;;5050056;28;20011;-76
2022/05/08 07:41:09;;;;;;;;;;;13.70;75.80;;;;;;5054078;28;19929;-79
2022/05/08 07:43:36;;;;;;;;;;;13.80;76.30;;;;;;5051690;28;19932;-77
2022/05/08 07:46:02;;;;;;;;;;;13.70;76.00;;;;;;5046336;28;19950;-75
2022/05/08 07:48:29;;;;;;;;;;;13.70;76.00;;;;;;5049245;28;19928;-77
2022/05/08 07:50:59;;;;;;;;;;;13.70;75.30;;;;;;5052768;28;19935;-75
2022/05/08 07:53:25;;;;;;;;;;;13.60;75.80;;;;;;5053933;28;19936;-78
2022/05/08 07:55:53;;;;;;;;;;;13.70;75.30;;;;;;5052127;28;19958;-76
2022/05/08 07:58:20;;;;;;;;;;;13.90;76.20;;;;;;5055015;28;19928;-76
2022/05/08 08:00:46;;;;;;;;;;;13.80;74.80;;;;;;5054266;28;20014;-77
2022/05/08 08:03:13;;;;;;;;;;;13.80;75.00;;;;;;5051109;28;20655;-80
2022/05/08 08:05:40;;;;;;;;;;;13.80;75.10;;;;;;5051714;28;19933;-77
2022/05/08 08:08:06;;;;;;;;;;;15.30;76.60;;;;;;5047809;28;19932;-75
2022/05/08 08:10:33;;;;;;;;;;;13.90;75.10;;;;;;5051309;28;19936;-76
2022/05/08 08:13:01;;;;;;;;;;;13.90;75.00;;;;;;5049583;28;20675;-77
2022/05/08 08:15:28;;;;;;;;;;;13.90;75.40;;;;;;5048912;28;20380;-73
2022/05/08 08:17:54;;;;;;;;;;;14.00;75.50;;;;;;5051130;28;21532;-77
2022/05/08 08:20:21;;;;;;;;;;;14.00;74.80;;;;;;5050070;28;20000;-76
2022/05/08 08:22:47;;;;;;;;;;;14.10;75.60;;;;;;5051365;28;19936;-78
2022/05/08 08:25:14;;;;;;;;;;;14.20;76.20;;;;;;5049102;28;20027;-78
2022/05/08 08:27:40;;;;;;;;;;;14.20;76.60;;;;;;5051750;28;19935;-77
2022/05/08 08:30:09;;;;;;;;;;;14.30;76.00;;;;;;5046877;28;19932;-75
2022/05/08 08:32:35;;;;;;;;;;;14.30;75.80;;;;;;5047524;28;19962;-77
2022/05/08 08:35:02;;;;;;;;;;;14.20;75.50;;;;;;5045563;28;19952;-74
2022/05/08 08:37:29;;;;;;;;;;;14.70;83.80;;;;;;5050052;28;19944;-75
2022/05/08 08:39:55;;;;;;;;;;;14.40;75.40;;;;;;5054201;28;19928;-75
2022/05/08 08:42:27;;;;;;;;;;;14.60;77.80;;;;;;5053392;28;19932;-77
2022/05/08 08:47:50;;;;;;;;;;;14.50;75.20;;;;;;5054731;28;19931;-77
2022/05/08 08:50:17;;;;;;;;;;;14.60;74.90;;;;;;5054816;28;19974;-77
2022/05/08 08:52:44;;;;;;;;;;;14.60;75.40;;;;;;5054488;28;20323;-77
2022/05/08 08:55:11;;;;;;;;;;;14.70;75.50;;;;;;5051818;28;19928;-78
2022/05/08 08:57:38;;;;;;;;;;;14.70;75.50;;;;;;5054780;28;19940;-77
2022/05/08 09:00:06;;;;;;;;;;;14.70;75.20;;;;;;5054738;28;19939;-77
2022/05/08 09:02:34;;;;;;;;;;;14.80;75.10;;;;;;5050371;28;19936;-76
2022/05/08 09:05:04;;;;;;;;;;;14.80;74.90;;;;;;5053461;28;19928;-77
2022/05/08 09:07:38;;;;;;;;;;;14.90;75.00;;;;;;5053477;28;20015;-76
2022/05/08 09:10:12;;;;;;;;;;;14.90;74.00;;;;;;5057035;28;19932;-79
2022/05/08 09:12:39;;;;;;;;;;;15.00;74.60;;;;;;5061483;28;19933;-78
2022/05/08 09:15:06;;;;;;;;;;;;;;;;;;5053935;28;19936;-78
2022/05/08 09:17:43;;;;;;;;;;;15.10;73.70;;;;;;5056498;28;19930;-79
2022/05/08 09:20:23;;;;;;;;;;;15.20;73.40;;;;;;5052599;28;19928;-78
2022/05/08 09:22:59;;;;;;;;;;;15.20;74.10;;;;;;5059413;28;20383;-78
2022/05/08 09:25:26;;;;;;;;;;;15.20;74.00;;;;;;5057375;28;19932;-78
2022/05/08 09:28:00;;;;;;;;;;;15.30;73.80;;;;;;5054522;28;20315;-77
2022/05/08 09:30:27;;;;;;;;;;;15.30;72.90;;;;;;5059891;28;19928;-77
2022/05/08 09:32:53;;;;;;;;;;;15.40;73.50;;;;;;5058955;28;19925;-78
2022/05/08 09:35:21;;;;;;;;;;;14.80;73.10;;;;;;5059445;28;19935;-78
2022/05/08 09:37:54;;;;;;;;;;;15.50;73.20;;;;;;5059351;28;19928;-76
2022/05/08 09:40:21;;;;;;;;;;;15.60;72.20;;;;;;5057478;28;19925;-76
2022/05/08 09:42:48;;;;;;;;;;;15.60;72.70;;;;;;5057381;28;20011;-76
2022/05/08 09:45:15;;;;;;;;;;;15.70;72.60;;;;;;5052936;28;19952;-79
2022/05/08 09:47:42;;;;;;;;;;;15.70;72.30;;;;;;5061325;28;19935;-77
2022/05/08 09:50:09;;;;;;;;;;;15.80;71.60;;;;;;5056837;28;19929;-79
2022/05/08 09:52:39;;;;;;;;;;;15.80;72.10;;;;;;5060545;28;19931;-77
2022/05/08 09:55:06;;;;;;;;;;;15.90;72.00;;;;;;5054792;28;20014;-78
2022/05/08 09:57:33;;;;;;;;;;;16.00;71.90;;;;;;5059247;28;19933;-77
2022/05/08 10:00:00;;;;;;;;;;;16.00;71.00;;;;;;5057043;28;20078;-78
2022/05/08 10:02:27;;;;;;;;;;;16.10;71.60;;;;;;5059641;28;19924;-78
2022/05/08 10:04:53;;;;;;;;;;;16.10;71.30;;;;;;5058432;28;20376;-77
2022/05/08 10:07:20;;;;;;;;;;;16.20;71.30;;;;;;5055680;28;20392;-77
2022/05/08 10:15:17;;;;;;;;;;;16.40;70.80;;;;;;5057191;28;20019;-77
2022/05/08 10:17:44;;;;;;;;;;;16.40;70.50;;;;;;5062843;28;19975;-77
2022/05/08 10:20:10;;;;;;;;;;;15.80;72.20;;;;;;5064469;28;19924;-79
2022/05/08 10:22:48;;;;;;;;;;;16.60;70.20;;;;;;5059394;28;19959;-77
2022/05/08 10:25:17;;;;;;;;;;;16.60;70.00;;;;;;5059575;28;19967;-76
2022/05/08 10:27:59;;;;;;;;;;;16.70;69.70;;;;;;5055623;28;20493;-76
2022/05/08 10:30:25;;;;;;;;;;;16.80;72.10;;;;;;5052783;28;19932;-77
2022/05/08 10:32:52;;;;;;;;;;;17.00;70.00;;;;;;5056699;28;19940;-76
2022/05/08 10:35:20;;;;;;;;;;;17.00;68.40;;;;;;5057837;28;20011;-79
2022/05/08 10:37:47;;;;;;;;;;;;;;;;;;5061958;28;20437;-78
2022/05/08 10:40:28;;;;;;;;;;;17.20;67.00;;;;;;5060715;28;19936;-78
2022/05/08 10:42:58;;;;;;;;;;;17.30;67.70;;;;;;5058052;28;19935;-78
2022/05/08 10:45:40;;;;;;;;;;;17.30;67.40;;;;;;5053125;28;19940;-77
2022/05/08 10:48:13;;;;;;;;;;;17.40;67.10;;;;;;5051856;28;19978;-79
2022/05/08 10:50:41;;;;;;;;;;;17.50;73.20;;;;;;5058539;28;19939;-79
2022/05/08 10:53:20;;;;;;;;;;;17.60;72.40;;;;;;5060026;28;19964;-78
2022/05/08 10:55:46;;;;;;;;;;;17.70;72.80;;;;;;5057541;28;20479;-77
2022/05/08 10:58:14;;;;;;;;;;;17.80;66.30;;;;;;5053452;28;20309;-78
2022/05/08 11:00:41;;;;;;;;;;;17.60;82.40;;;;;;5052654;28;20359;-77
2022/05/08 11:03:07;;;;;;;;;;;18.00;64.50;;;;;;5056737;28;19936;-78
2022/05/08 11:05:36;;;;;;;;;;;18.00;64.80;;;;;;5058862;28;20308;-77
2022/05/08 11:08:04;;;;;;;;;;;18.00;64.60;;;;;;5051417;28;19983;-77
2022/05/08 11:10:31;;;;;;;;;;;18.20;63.50;;;;;;5056733;28;19932;-78
2022/05/08 11:13:00;;;;;;;;;;;18.20;63.80;;;;;;5051766;28;20308;-78
2022/05/08 11:15:28;;;;;;;;;;;18.30;63.40;;;;;;5055410;28;20386;-77
2022/05/08 11:18:02;;;;;;;;;;;18.40;63.20;;;;;;5054547;28;19951;-77
2022/05/08 11:20:29;;;;;;;;;;;18.60;62.60;;;;;;5054582;28;20374;-77
2022/05/08 11:22:56;;;;;;;;;;;18.50;62.80;;;;;;5054226;28;19935;-77
2022/05/08 11:25:23;;;;;;;;;;;18.60;62.30;;;;;;5057258;28;20501;-77
2022/05/08 11:27:51;;;;;;;;;;;18.70;61.60;;;;;;5057097;28;20416;-78
2022/05/08 11:30:26;;;;;;;;;;;18.80;61.60;;;;;;5057871;28;19932;-77
2022/05/08 11:38:22;;;;;;;;;;;18.90;60.70;;;;;;5055055;28;19979;-77
2022/05/08 11:40:49;;;;;;;;;;;19.00;59.70;;;;;;5059251;28;19971;-76
2022/05/08 11:43:30;;;;;;;;;;;19.10;60.50;;;;;;5058487;28;19925;-78
2022/05/08 11:45:58;;;;;;;;;;;19.10;60.60;;;;;;5054902;28;20397;-77
2022/05/08 11:48:33;;;;;;;;;;;19.20;60.60;;;;;;5059793;28;19940;-77
2022/05/08 11:50:59;;;;;;;;;;;19.20;60.50;;;;;;5054277;28;19929;-78
2022/05/08 11:53:26;;;;;;;;;;;19.20;60.30;;;;;;5057184;28;20015;-77
2022/05/08 11:55:52;;;;;;;;;;;19.30;60.10;;;;;;5053328;28;19936;-79
2022/05/08 11:58:30;;;;;;;;;;;19.40;60.10;;;;;;5054812;28;19929;-77
2022/05/08 12:00:57;;;;;;;;;;;19.40;60.00;;;;;;5056611;28;20019;-78
2022/05/08 12:03:27;;;;;;;;;;;19.50;59.90;;;;;;5053738;28;20308;-78
2022/05/08 12:06:09;;;;;;;;;;;19.50;59.80;;;;;;5055284;28;20003;-76
2022/05/08 12:08:37;;;;;;;;;;;19.60;59.70;;;;;;5054978;28;19924;-79
2022/05/08 12:11:03;;;;;;;;;;;19.60;59.60;;;;;;5049035;28;19932;-78
2022/05/08 12:13:34;;;;;;;;;;;19.70;59.50;;;;;;5049312;28;19939;-78
2022/05/08 12:16:11;;;;;;;;;;;19.70;60.00;;;;;;5050546;28;19948;-78
2022/05/08 12:18:37;;;;;;;;;;;19.80;59.30;;;;;;5051410;28;19933;-77
2022/05/08 12:21:04;;;;;;;;;;;19.80;58.80;;;;;;5052246;28;20406;-80
2022/05/08 12:23:31;;;;;;;;;;;19.90;59.20;;;;;;5055101;28;19936;-77
2022/05/08 12:25:59;;;;;;;;;;;19.90;59.00;;;;;;5054961;28;19935;-77
2022/05/08 12:28:25;;;;;;;;;;;20.00;59.00;;;;;;5049549;28;20053;-78
2022/05/08 12:30:52;;;;;;;;;;;20.00;59.00;;;;;;5051127;28;19940;-78
2022/05/08 12:33:18;;;;;;;;;;;20.00;59.00;;;;;;5052485;28;19928;-78
2022/05/08 12:35:45;;;;;;;;;;;20.10;59.10;;;;;;5051722;28;19936;-80
2022/05/08 12:38:11;;;;;;;;;;;20.10;59.10;;;;;;5048477;28;19963;-77
2022/05/08 12:40:39;;;;;;;;;;;20.20;58.80;;;;;;5052830;28;19932;-79
2022/05/08 12:43:08;;;;;;;;;;;20.20;58.60;;;;;;5061294;28;20028;-79
2022/05/08 12:45:37;;;;;;;;;;;20.20;58.30;;;;;;5063928;28;19982;-77
2022/05/08 12:48:04;;;;;;;;;;;20.30;58.10;;;;;;5059805;28;19933;-79
2022/05/08 12:50:31;;;;;;;;;;;20.40;58.50;;;;;;5056774;28;20486;-77
2022/05/08 12:52:57;;;;;;;;;;;20.40;58.10;;;;;;5058754;28;19935;-76
2022/05/08 12:55:24;;;;;;;;;;;20.40;58.00;;;;;;5055964;28;19940;-79
2022/05/08 13:00:36;;;;;;;;;;;20.50;57.70;;;;;;5057229;28;19943;-78
2022/05/08 13:03:03;;;;;;;;;;;20.60;57.50;;;;;;5053200;28;19928;-76
2022/05/08 13:05:29;;;;;;;;;;;20.60;57.20;;;;;;5058190;28;19929;-77
2022/05/08 13:07:56;;;;;;;;;;;20.70;56.60;;;;;;5058412;28;19936;-77
2022/05/08 13:10:22;;;;;;;;;;;20.70;56.30;;;;;;5061635;28;19940;-78
2022/05/08 13:12:49;;;;;;;;;;;20.80;56.30;;;;;;5051332;28;19929;-79
2022/05/08 13:15:17;;;;;;;;;;;20.80;55.70;;;;;;5052964;28;19924;-78
2022/05/08 13:17:45;;;;;;;;;;;20.90;55.60;;;;;;5063109;28;20043;-80
2022/05/08 13:20:11;;;;;;;;;;;20.90;55.40;;;;;;5053918;28;19936;-77
2022/05/08 13:22:41;;;;;;;;;;;21.00;55.20;;;;;;5059272;28;19936;-79
2022/05/08 13:25:08;;;;;;;;;;;21.10;55.30;;;;;;5058928;28;20630;-77
2022/05/08 13:27:35;;;;;;;;;;;21.10;55.10;;;;;;5057580;28;19929;-77
2022/05/08 13:30:02;;;;;;;;;;;21.20;54.90;;;;;;5055973;28;20467;-78
2022/05/08 13:32:28;;;;;;;;;;;21.20;54.60;;;;;;5059727;28;19932;-77
2022/05/08 13:34:56;;;;;;;;;;;21.20;54.90;;;;;;5053287;28;19952;-77
2022/05/08 13:37:23;;;;;;;;;;;21.20;54.80;;;;;;5055984;28;19939;-78
2022/05/08 13:39:49;;;;;;;;;;;21.30;54.50;;;;;;5053417;28;19928;-77
2022/05/08 13:42:18;;;;;;;;;;;21.30;54.60;;;;;;5057041;28;19928;-77
2022/05/08 13:44:44;;;;;;;;;;;21.40;54.50;;;;;;5054111;28;19933;-78
2022/05/08 13:47:11;;;;;;;;;;;21.50;54.60;;;;;;5055420;28;19933;-76
2022/05/08 13:49:37;;;;;;;;;;;21.50;54.40;;;;;;5056970;28;19929;-79
2022/05/08 13:52:06;;;;;;;;;;;21.60;54.50;;;;;;5049704;28;19929;-79
2022/05/08 13:54:36;;;;;;;;;;;21.60;54.00;;;;;;5059421;28;19934;-79
2022/05/08 13:57:03;;;;;;;;;;;21.70;53.40;;;;;;5059830;28;19928;-76
2022/05/08 13:59:30;;;;;;;;;;;21.70;53.40;;;;;;5059943;28;19928;-77
2022/05/08 14:01:57;;;;;;;;;;;21.80;53.50;;;;;;5058601;28;20300;-78
2022/05/08 14:04:23;;;;;;;;;;;21.90;53.50;;;;;;5057542;28;20307;-79
2022/05/08 14:06:50;;;;;;;;;;;21.90;53.10;;;;;;5061345;28;19932;-78
2022/05/08 14:09:18;;;;;;;;;;;22.00;52.90;;;;;;5056612;28;20698;-80
2022/05/08 14:11:45;;;;;;;;;;;22.10;52.80;;;;;;5057525;28;19929;-77
2022/05/08 14:14:11;;;;;;;;;;;22.10;52.70;;;;;;5061597;28;19939;-78
2022/05/08 14:16:38;;;;;;;;;;;22.20;52.70;;;;;;5061495;28;19928;-77
2022/05/08 14:19:05;;;;;;;;;;;22.20;52.30;;;;;;5053183;28;19928;-75
2022/05/08 14:21:31;;;;;;;;;;;22.30;52.20;;;;;;5059907;28;19955;-79
2022/05/08 14:23:58;;;;;;;;;;;22.40;52.20;;;;;;5051446;28;20530;-75
2022/05/08 14:26:25;;;;;;;;;;;22.40;52.30;;;;;;5061529;28;19933;-78
2022/05/08 14:28:52;;;;;;;;;;;22.50;52.20;;;;;;5062233;28;19940;-79
2022/05/08 14:36:43;;;;;;;;;;;22.70;51.30;;;;;;5025322;28;20035;-79
2022/05/08 14:39:10;;;;;;;;;;;22.80;51.30;;;;;;5048640;28;19929;-79
2022/05/08 14:41:38;;;;;;;;;;;22.80;50.60;;;;;;5057976;28;20559;-77
2022/05/08 14:44:04;;;;;;;;;;;22.90;50.30;;;;;;5048592;28;20407;-76
2022/05/08 14:46:31;;;;;;;;;;;22.90;50.20;;;;;;5054005;28;19936;-77
2022/05/08 14:48:58;;;;;;;;;;;22.90;50.70;;;;;;5051698;28;19933;-78
2022/05/08 14:51:25;;;;;;;;;;;23.00;50.50;;;;;;5054453;28;19929;-77
2022/05/08 14:53:51;;;;;;;;;;;23.10;50.40;;;;;;5061293;28;19932;-77
2022/05/08 14:56:18;;;;;;;;;;;23.10;49.90;;;;;;5056364;28;19933;-79